Time;durP1;ratioP1;P1;durP2;ratioP2;P2;SDS_P1;SDS_P2;PMS_P1;PMS_P2;Temp;Humidity;BMP_temperature;BMP_pressure;BME280_temperature;BME280_humidity;BME280_pressure;Samples;Min_cycle;Max_cycle;Signal;HPM_P1;HPM_P2
2023/06/25 00:00:50;;;;;;;1999.90;999.90;;;21.40;99.90;;;;;;5095610;28;20404;-65
2023/06/25 00:03:16;;;;;;;1999.90;999.90;;;21.40;99.90;;;;;;5095579;28;20227;-65
2023/06/25 00:05:42;;;;;;;1999.90;999.90;;;21.30;99.90;;;;;;5095645;28;20584;-66
2023/06/25 00:08:08;;;;;;;1999.90;999.90;;;21.30;99.90;;;;;;5095393;28;20247;-65
2023/06/25 00:10:34;;;;;;;1999.90;999.90;;;21.30;99.90;;;;;;5095487;28;20473;-66
2023/06/25 00:12:59;;;;;;;1999.90;999.90;;;21.20;99.90;;;;;;5095205;28;20406;-66
2023/06/25 00:15:43;;;;;;;1999.90;999.90;;;21.10;99.90;;;;;;5095330;28;20189;-65
2023/06/25 00:18:08;;;;;;;1999.90;999.90;;;21.00;99.90;;;;;;5095418;28;20187;-65
2023/06/25 00:20:34;;;;;;;1999.90;999.90;;;21.00;99.90;;;;;;5095317;28;20415;-65
2023/06/25 00:23:00;;;;;;;1999.90;999.90;;;21.00;99.90;;;;;;5094821;28;20197;-66
2023/06/25 00:25:26;;;;;;;1999.90;999.90;;;20.90;99.90;;;;;;5095105;28;20405;-66
2023/06/25 00:27:53;;;;;;;1999.90;999.90;;;20.90;99.90;;;;;;5095106;28;20197;-66
2023/06/25 00:30:18;;;;;;;1999.90;999.90;;;20.70;99.90;;;;;;5095196;28;20752;-65
2023/06/25 00:32:45;;;;;;;1999.90;999.90;;;20.70;99.90;;;;;;5094798;28;20403;-66
2023/06/25 00:35:11;;;;;;;1999.90;999.90;;;20.70;99.90;;;;;;5094945;28;20398;-65
2023/06/25 00:37:45;;;;;;;1999.90;999.90;;;20.60;99.90;;;;;;5094932;28;20786;-65
2023/06/25 00:40:11;;;;;;;1999.90;999.90;;;20.70;99.90;;;;;;5094960;28;20408;-64
2023/06/25 00:42:42;;;;;;;1999.90;999.90;;;20.70;99.90;;;;;;5094527;28;20501;-66
2023/06/25 00:45:09;;;;;;;1999.90;999.90;;;20.60;99.90;;;;;;5094499;28;20412;-65
2023/06/25 00:47:36;;;;;;;1999.90;999.90;;;20.50;99.90;;;;;;5094490;28;20445;-66
2023/06/25 00:50:02;;;;;;;1999.90;999.90;;;20.50;99.90;;;;;;5094731;28;20412;-64
2023/06/25 00:52:28;;;;;;;1999.90;999.90;;;20.50;99.90;;;;;;5094308;28;20446;-66
2023/06/25 00:54:54;;;;;;;1999.90;999.90;;;20.50;99.90;;;;;;5094542;28;20462;-65
2023/06/25 00:57:21;;;;;;;1999.90;999.90;;;20.40;99.90;;;;;;5094648;28;21087;-66
2023/06/25 00:59:48;;;;;;;1999.90;999.90;;;20.50;99.90;;;;;;5094722;28;20432;-66
2023/06/25 01:02:35;;;;;;;1999.90;999.90;;;20.40;99.90;;;;;;5094337;28;20385;-66
2023/06/25 01:05:21;;;;;;;1999.90;999.90;;;20.30;99.90;;;;;;5094477;28;20401;-65
2023/06/25 01:07:48;;;;;;;1999.90;999.90;;;20.30;99.90;;;;;;5094367;28;20463;-67
2023/06/25 01:10:14;;;;;;;1999.90;999.90;;;20.30;99.90;;;;;;5094385;28;20414;-65
2023/06/25 01:12:42;;;;;;;1999.90;999.90;;;20.30;99.90;;;;;;5094049;28;20374;-65
2023/06/25 01:15:09;;;;;;;1999.90;999.90;;;20.30;99.90;;;;;;5094266;28;20418;-66
2023/06/25 01:17:36;;;;;;;1999.90;999.90;;;20.20;99.90;;;;;;5094274;28;20495;-66
2023/06/25 01:20:04;;;;;;;1999.90;999.90;;;20.20;99.90;;;;;;5094109;28;20385;-66
2023/06/25 01:22:31;;;;;;;1999.90;999.90;;;20.20;99.90;;;;;;5093646;28;20431;-66
2023/06/25 01:24:57;;;;;;;1999.90;999.90;;;20.20;99.90;;;;;;5094048;28;20426;-65
2023/06/25 01:27:23;;;;;;;1999.90;999.90;;;20.10;99.90;;;;;;5093949;28;20447;-66
2023/06/25 01:29:50;;;;;;;1999.90;999.90;;;20.00;99.90;;;;;;5094072;28;20414;-65
2023/06/25 01:32:16;;;;;;;1999.90;999.90;;;19.90;99.90;;;;;;5093673;28;20176;-66
2023/06/25 01:34:42;;;;;;;1999.90;999.90;;;19.80;99.90;;;;;;5093781;28;20406;-66
2023/06/25 01:37:08;;;;;;;1999.90;999.90;;;19.70;99.90;;;;;;5093833;28;20463;-66
2023/06/25 01:39:34;;;;;;;1999.90;999.90;;;19.60;99.90;;;;;;5093846;28;20175;-65
2023/06/25 01:41:59;;;;;;;1999.90;999.90;;;19.60;99.90;;;;;;5093494;28;20184;-65
2023/06/25 01:44:28;;;;;;;1999.90;999.90;;;19.50;99.90;;;;;;5093659;28;20390;-65
2023/06/25 01:46:54;;;;;;;1999.90;999.90;;;19.50;99.90;;;;;;5093568;28;20193;-65
2023/06/25 01:49:19;;;;;;;1999.90;999.90;;;19.40;99.90;;;;;;5093570;28;20429;-66
2023/06/25 01:51:45;;;;;;;1999.90;999.90;;;19.40;99.90;;;;;;5093265;28;20376;-65
2023/06/25 01:54:10;;;;;;;1999.90;999.90;;;19.40;99.90;;;;;;5093512;28;20167;-64
2023/06/25 01:56:36;;;;;;;1999.90;999.90;;;19.40;99.90;;;;;;5093199;28;20191;-66
2023/06/25 01:59:02;;;;;;;1999.90;999.90;;;19.40;99.90;;;;;;5092709;28;20163;-67
2023/06/25 02:01:27;;;;;;;1999.90;999.90;;;19.40;99.90;;;;;;5093039;28;20258;-65
2023/06/25 02:03:53;;;;;;;1999.90;999.90;;;19.30;99.90;;;;;;5093286;28;20520;-65
2023/06/25 02:06:19;;;;;;;1999.90;999.90;;;19.40;99.90;;;;;;5093169;28;20186;-65
2023/06/25 02:08:44;;;;;;;1999.90;999.90;;;19.40;99.90;;;;;;5093106;28;20286;-66
2023/06/25 02:11:10;;;;;;;1999.90;999.90;;;19.40;99.90;;;;;;5092946;28;20247;-65
2023/06/25 02:13:35;;;;;;;1999.90;999.90;;;19.40;99.90;;;;;;5093108;28;20164;-66
2023/06/25 02:16:01;;;;;;;1999.90;999.90;;;19.40;99.90;;;;;;5092982;28;20218;-65
2023/06/25 02:18:31;;;;;;;1999.90;999.90;;;19.40;99.90;;;;;;5092999;28;20167;-65
2023/06/25 02:20:58;;;;;;;1999.90;999.90;;;19.30;99.90;;;;;;5092702;28;20382;-66
2023/06/25 02:23:23;;;;;;;1999.90;999.90;;;19.20;99.90;;;;;;5092912;28;20424;-65
2023/06/25 02:25:52;;;;;;;1999.90;999.90;;;19.20;99.90;;;;;;5092806;28;20949;-66
2023/06/25 02:28:18;;;;;;;1999.90;999.90;;;19.10;99.90;;;;;;5092822;28;20187;-65
2023/06/25 02:30:43;;;;;;;1999.90;999.90;;;19.10;99.90;;;;;;5092750;28;20400;-65
2023/06/25 02:33:09;;;;;;;1999.90;999.90;;;19.10;99.90;;;;;;5092501;28;20167;-65
2023/06/25 02:35:35;;;;;;;1999.90;999.90;;;19.10;99.90;;;;;;5092611;28;20190;-66
2023/06/25 02:38:01;;;;;;;1999.90;999.90;;;19.00;99.90;;;;;;5092728;28;20467;-65
2023/06/25 02:40:29;;;;;;;1999.90;999.90;;;19.00;99.90;;;;;;5092770;28;20186;-64
2023/06/25 02:42:56;;;;;;;1999.90;999.90;;;19.00;99.90;;;;;;5092386;28;20167;-64
2023/06/25 02:45:22;;;;;;;1999.90;999.90;;;19.00;99.90;;;;;;5092489;28;20429;-66
2023/06/25 02:47:47;;;;;;;1999.90;999.90;;;18.90;99.90;;;;;;5092596;28;20426;-67
2023/06/25 02:50:13;;;;;;;1999.90;999.90;;;19.00;99.90;;;;;;5092498;28;20408;-65
2023/06/25 02:52:39;;;;;;;1999.90;999.90;;;18.90;99.90;;;;;;5092224;28;20192;-65
2023/06/25 02:55:05;;;;;;;1999.90;999.90;;;18.90;99.90;;;;;;5092416;28;20948;-65
2023/06/25 02:57:32;;;;;;;1999.90;999.90;;;18.90;99.90;;;;;;5092441;28;20171;-65
2023/06/25 02:59:58;;;;;;;1999.90;999.90;;;18.70;99.90;;;;;;5092282;28;20408;-65
2023/06/25 03:02:24;;;;;;;1999.90;999.90;;;18.70;99.90;;;;;;5092026;28;20800;-67
2023/06/25 03:04:49;;;;;;;1999.90;999.90;;;18.60;99.90;;;;;;5092290;28;20438;-65
2023/06/25 03:07:15;;;;;;;1999.90;999.90;;;18.60;99.90;;;;;;5092218;28;20871;-66
2023/06/25 03:09:41;;;;;;;1999.90;999.90;;;18.50;99.90;;;;;;5092025;28;20641;-65
2023/06/25 03:12:08;;;;;;;1999.90;999.90;;;18.50;99.90;;;;;;5092005;28;20256;-65
2023/06/25 03:14:34;;;;;;;1999.90;999.90;;;18.50;99.90;;;;;;5091946;28;20415;-65
2023/06/25 03:17:00;;;;;;;1999.90;999.90;;;18.40;99.90;;;;;;5092111;28;20396;-65
2023/06/25 03:19:25;;;;;;;1999.90;999.90;;;18.40;99.90;;;;;;5092363;28;20187;-65
2023/06/25 03:21:51;;;;;;;1999.90;999.90;;;18.40;99.90;;;;;;5091761;28;20430;-66
2023/06/25 03:24:16;;;;;;;1999.90;999.90;;;18.50;99.90;;;;;;5091982;28;20241;-65
2023/06/25 03:26:42;;;;;;;1999.90;999.90;;;18.50;99.90;;;;;;5092146;28;20170;-64
2023/06/25 03:29:08;;;;;;;1999.90;999.90;;;18.50;99.90;;;;;;5091941;28;20208;-64
2023/06/25 03:31:33;;;;;;;1999.90;999.90;;;18.50;99.90;;;;;;5091812;28;20172;-65
2023/06/25 03:33:59;;;;;;;1999.90;999.90;;;18.50;99.90;;;;;;5092072;28;20181;-66
2023/06/25 03:36:24;;;;;;;1999.90;999.90;;;18.50;99.90;;;;;;5091883;28;20718;-67
2023/06/25 03:38:50;;;;;;;1999.90;999.90;;;18.50;99.90;;;;;;5091964;28;20166;-65
2023/06/25 03:41:16;;;;;;;1999.90;999.90;;;18.50;99.90;;;;;;5091642;28;20537;-65
2023/06/25 03:43:41;;;;;;;1999.90;999.90;;;18.40;99.90;;;;;;5091860;28;20173;-65
2023/06/25 03:46:07;;;;;;;1999.90;999.90;;;18.50;99.90;;;;;;5091791;28;20189;-66
2023/06/25 03:48:33;;;;;;;1999.90;999.90;;;18.50;99.90;;;;;;5091798;28;20256;-65
2023/06/25 03:50:58;;;;;;;1999.90;999.90;;;18.40;99.90;;;;;;5091569;28;20181;-66
2023/06/25 03:53:25;;;;;;;1999.90;999.90;;;18.40;99.90;;;;;;5091825;28;20220;-65
2023/06/25 03:55:51;;;;;;;1999.90;999.90;;;18.40;99.90;;;;;;5091695;28;20186;-66
2023/06/25 03:58:17;;;;;;;1999.90;999.90;;;18.30;99.90;;;;;;5091735;28;20379;-65
2023/06/25 04:00:42;;;;;;;1999.90;999.90;;;18.30;99.90;;;;;;5091753;28;20173;-65
2023/06/25 04:03:08;;;;;;;1999.90;999.90;;;18.40;99.90;;;;;;5091581;28;20175;-65
2023/06/25 04:05:33;;;;;;;1999.90;999.90;;;18.40;99.90;;;;;;5091835;28;20190;-65
2023/06/25 04:07:59;;;;;;;1999.90;999.90;;;18.30;99.90;;;;;;5091727;28;20196;-65
2023/06/25 04:10:26;;;;;;;1999.90;999.90;;;18.40;99.90;;;;;;5091711;28;20249;-65
2023/06/25 04:12:51;;;;;;;1999.90;999.90;;;18.40;99.90;;;;;;5091325;28;20216;-64
2023/06/25 04:15:17;;;;;;;1999.90;999.90;;;18.40;99.90;;;;;;5091582;28;21125;-64
2023/06/25 04:17:42;;;;;;;1999.90;999.90;;;18.40;99.90;;;;;;5091524;28;20256;-65
2023/06/25 04:20:08;;;;;;;1999.90;999.90;;;18.40;99.90;;;;;;5091553;28;20175;-65
2023/06/25 04:22:34;;;;;;;1999.90;999.90;;;18.40;99.90;;;;;;5094810;28;20187;-65
2023/06/25 04:25:00;;;;;;;1999.90;999.90;;;18.40;99.90;;;;;;5095127;28;20489;-67
2023/06/25 04:27:26;;;;;;;1999.90;999.90;;;18.40;99.90;;;;;;5095191;28;20198;-65
2023/06/25 04:29:51;;;;;;;1999.90;999.90;;;18.40;99.90;;;;;;5095608;28;20202;-68
2023/06/25 04:32:17;;;;;;;1999.90;999.90;;;18.40;99.90;;;;;;5094820;28;20300;-67
2023/06/25 04:34:42;;;;;;;1999.90;999.90;;;18.50;99.90;;;;;;5095137;28;20175;-67
2023/06/25 04:37:08;;;;;;;1999.90;999.90;;;18.50;99.90;;;;;;5095048;28;20175;-66
2023/06/25 04:39:34;;;;;;;1999.90;999.90;;;18.60;99.90;;;;;;5095054;28;20195;-68
2023/06/25 04:41:59;;;;;;;1999.90;999.90;;;18.70;99.90;;;;;;5094769;28;20165;-67
2023/06/25 04:44:25;;;;;;;1999.90;999.90;;;18.60;99.90;;;;;;5094806;28;20231;-67
2023/06/25 04:46:51;;;;;;;1999.90;999.90;;;18.60;99.90;;;;;;5094798;28;20250;-67
2023/06/25 04:49:16;;;;;;;1999.90;999.90;;;18.70;99.90;;;;;;5094728;28;20529;-66
2023/06/25 04:51:45;;;;;;;1999.90;999.90;;;18.60;99.90;;;;;;5094488;28;20171;-67
2023/06/25 04:54:12;;;;;;;1999.90;999.90;;;18.70;99.90;;;;;;5094733;28;20249;-67
2023/06/25 04:56:37;;;;;;;1999.90;999.90;;;18.80;99.90;;;;;;5094509;28;20426;-68
2023/06/25 04:59:03;;;;;;;1999.90;999.90;;;18.90;99.90;;;;;;5094605;28;20466;-68
2023/06/25 05:01:28;;;;;;;1999.90;999.90;;;19.00;99.90;;;;;;5094271;28;20205;-67
2023/06/25 05:03:54;;;;;;;1999.90;999.90;;;19.00;99.90;;;;;;5094579;28;20178;-68
2023/06/25 05:06:20;;;;;;;1999.90;999.90;;;19.10;99.90;;;;;;5094433;28;20245;-67
2023/06/25 05:08:45;;;;;;;1999.90;999.90;;;19.20;99.90;;;;;;5094399;28;20281;-67
2023/06/25 05:11:11;;;;;;;1999.90;999.90;;;19.20;99.90;;;;;;5094030;28;20188;-66
2023/06/25 05:13:36;;;;;;;1999.90;999.90;;;19.20;99.90;;;;;;5094363;28;20166;-68
2023/06/25 05:16:03;;;;;;;1999.90;999.90;;;19.40;99.90;;;;;;5094178;28;20673;-68
2023/06/25 05:18:28;;;;;;;1999.90;999.90;;;19.40;99.90;;;;;;5094393;28;20258;-68
2023/06/25 05:20:54;;;;;;;1999.90;999.90;;;19.50;99.90;;;;;;5093948;28;20904;-67
2023/06/25 05:23:20;;;;;;;1999.90;999.90;;;19.50;99.90;;;;;;5094097;28;20209;-67
2023/06/25 05:25:46;;;;;;;1999.90;999.90;;;19.60;99.90;;;;;;5094009;28;20214;-66
2023/06/25 05:28:12;;;;;;;1999.90;999.90;;;19.70;99.90;;;;;;5093950;28;20954;-66
2023/06/25 05:30:37;;;;;;;1999.90;999.90;;;19.80;99.90;;;;;;5093949;28;20521;-65
2023/06/25 05:33:03;;;;;;;1999.90;999.90;;;19.90;99.90;;;;;;5093938;28;20261;-67
2023/06/25 05:35:29;;;;;;;1999.90;999.90;;;20.00;99.90;;;;;;5093949;28;20188;-68
2023/06/25 05:37:55;;;;;;;1999.90;999.90;;;20.10;99.90;;;;;;5093841;28;20681;-67
2023/06/25 05:40:21;;;;;;;1999.90;999.90;;;20.10;99.90;;;;;;5093662;28;20176;-67
2023/06/25 05:42:46;;;;;;;1999.90;999.90;;;20.30;99.90;;;;;;5093454;28;20408;-68
2023/06/25 05:45:12;;;;;;;1999.90;999.90;;;20.40;99.90;;;;;;5093681;28;20191;-67
2023/06/25 05:47:37;;;;;;;1999.90;999.90;;;20.50;99.90;;;;;;5093642;28;20188;-68
2023/06/25 05:50:04;;;;;;;1999.90;999.90;;;20.50;99.90;;;;;;5093640;28;20160;-68
2023/06/25 05:52:29;;;;;;;1999.90;999.90;;;20.50;99.90;;;;;;5093389;28;20577;-68
2023/06/25 05:54:55;;;;;;;1999.90;999.90;;;20.60;99.90;;;;;;5093366;28;20437;-69
2023/06/25 05:57:21;;;;;;;1999.90;999.90;;;20.70;99.90;;;;;;5090717;28;20177;-67
2023/06/25 05:59:47;;;;;;;1999.90;999.90;;;20.80;99.90;;;;;;5093164;28;20189;-66
2023/06/25 06:02:12;;;;;;;1999.90;999.90;;;20.90;99.90;;;;;;5092857;28;20177;-65
2023/06/25 06:04:38;;;;;;;1999.90;999.90;;;20.90;99.90;;;;;;5092482;28;20189;-67
2023/06/25 06:07:04;;;;;;;1999.90;999.90;;;21.00;99.90;;;;;;5092864;28;20163;-67
2023/06/25 06:09:29;;;;;;;1999.90;999.90;;;21.10;99.90;;;;;;5092963;28;20631;-68
2023/06/25 06:11:55;;;;;;;1999.90;999.90;;;21.20;99.90;;;;;;5092163;28;20439;-67
2023/06/25 06:14:21;;;;;;;1999.90;999.90;;;21.30;99.90;;;;;;5092735;28;20642;-67
2023/06/25 06:16:47;;;;;;;1999.90;999.90;;;21.40;99.90;;;;;;5092805;28;20673;-66
2023/06/25 06:19:12;;;;;;;1999.90;999.90;;;21.50;99.90;;;;;;5092285;28;20177;-68
2023/06/25 06:21:38;;;;;;;1999.90;999.90;;;21.60;99.90;;;;;;5092317;28;20231;-67
2023/06/25 06:24:04;;;;;;;1999.90;999.90;;;21.70;99.90;;;;;;5092715;28;20181;-67
2023/06/25 06:26:30;;;;;;;1999.90;999.90;;;21.80;99.90;;;;;;5092268;28;20204;-68
2023/06/25 06:28:55;;;;;;;1999.90;999.90;;;21.90;99.90;;;;;;5092422;28;20237;-67
2023/06/25 06:31:21;;;;;;;1999.90;999.90;;;22.00;99.90;;;;;;5092404;28;20436;-68
2023/06/25 06:33:48;;;;;;;1999.90;999.90;;;22.00;99.90;;;;;;5092000;28;20190;-66
2023/06/25 06:36:13;;;;;;;1999.90;999.90;;;22.10;99.90;;;;;;5092453;28;20477;-67
2023/06/25 06:38:39;;;;;;;1999.90;999.90;;;22.10;99.90;;;;;;5092371;28;20180;-67
2023/06/25 06:41:05;;;;;;;1999.90;999.90;;;22.20;99.90;;;;;;5091547;28;20208;-67
2023/06/25 06:43:31;;;;;;;1999.90;999.90;;;22.30;99.90;;;;;;5091549;28;20741;-68
2023/06/25 06:45:57;;;;;;;1999.90;999.90;;;22.40;99.90;;;;;;5092670;28;20288;-68
2023/06/25 06:48:22;;;;;;;1999.90;999.90;;;22.60;99.90;;;;;;5074361;28;20542;-68
2023/06/25 06:50:48;;;;;;;1999.90;999.90;;;22.70;99.90;;;;;;5092336;28;20166;-65
2023/06/25 06:53:14;;;;;;;1999.90;999.90;;;22.80;99.90;;;;;;5092158;28;20170;-67
2023/06/25 06:55:39;;;;;;;1999.90;999.90;;;22.90;99.90;;;;;;5092397;28;20190;-65
2023/06/25 06:58:05;;;;;;;1999.90;999.90;;;23.00;99.90;;;;;;5092480;28;20177;-66
2023/06/25 07:00:31;;;;;;;1999.90;999.90;;;23.10;99.90;;;;;;5092527;28;20229;-65
2023/06/25 07:02:59;;;;;;;1999.90;999.90;;;23.20;99.90;;;;;;5092156;28;20178;-66
2023/06/25 07:05:24;;;;;;;1999.90;999.90;;;23.30;99.90;;;;;;5092276;28;20876;-66
2023/06/25 07:07:50;;;;;;;1999.90;999.90;;;23.40;99.90;;;;;;5092238;28;20517;-66
2023/06/25 07:10:15;;;;;;;1999.90;999.90;;;23.40;99.90;;;;;;5092310;28;20177;-65
2023/06/25 07:12:41;;;;;;;1999.90;999.90;;;23.60;99.90;;;;;;5091858;28;20201;-65
2023/06/25 07:15:07;;;;;;;1999.90;999.90;;;23.60;99.90;;;;;;5092135;28;20186;-65
2023/06/25 07:17:32;;;;;;;1999.90;999.90;;;23.80;99.90;;;;;;5092226;28;20217;-67
2023/06/25 07:19:58;;;;;;;1999.90;999.90;;;23.90;99.90;;;;;;5092170;28;20443;-65
2023/06/25 07:22:23;;;;;;;1999.90;999.90;;;24.00;99.90;;;;;;5091697;28;20193;-66
2023/06/25 07:24:49;;;;;;;1999.90;999.90;;;24.10;99.90;;;;;;5092196;28;20198;-66
2023/06/25 07:27:15;;;;;;;1999.90;999.90;;;24.20;99.90;;;;;;5092047;28;20192;-66
2023/06/25 07:29:40;;;;;;;1999.90;999.90;;;24.30;99.90;;;;;;5092140;28;20604;-66
2023/06/25 07:32:06;;;;;;;1999.90;999.90;;;24.40;99.90;;;;;;5091749;28;20711;-66
2023/06/25 07:34:32;;;;;;;1999.90;999.90;;;24.40;99.90;;;;;;5091978;28;20166;-66
2023/06/25 07:36:58;;;;;;;1999.90;999.90;;;24.60;99.90;;;;;;5091979;28;20545;-65
2023/06/25 07:39:26;;;;;;;1999.90;999.90;;;24.60;99.90;;;;;;5092217;28;20642;-66
2023/06/25 07:41:52;;;;;;;1999.90;999.90;;;24.60;99.90;;;;;;5091751;28;20198;-66
2023/06/25 07:44:18;;;;;;;1999.90;999.90;;;24.60;99.90;;;;;;5091892;28;20408;-68
2023/06/25 07:46:44;;;;;;;1999.90;999.90;;;24.60;99.90;;;;;;5091993;28;20404;-68
2023/06/25 07:49:09;;;;;;;1999.90;999.90;;;24.80;99.90;;;;;;5091758;28;20241;-66
2023/06/25 07:51:35;;;;;;;1999.90;999.90;;;24.80;99.90;;;;;;5091477;28;20163;-67
2023/06/25 07:54:00;;;;;;;1999.90;999.90;;;24.90;99.90;;;;;;5091841;28;20167;-69
2023/06/25 07:56:26;;;;;;;1999.90;999.90;;;24.90;99.90;;;;;;5093792;28;20660;-68
2023/06/25 07:58:51;;;;;;;1999.90;999.90;;;25.00;99.90;;;;;;5095720;28;20209;-67
2023/06/25 08:01:17;;;;;;;1999.90;999.90;;;25.20;99.90;;;;;;5095434;28;20182;-68
2023/06/25 08:03:42;;;;;;;1999.90;999.90;;;25.30;99.90;;;;;;5095805;28;20184;-68
2023/06/25 08:06:08;;;;;;;1999.90;999.90;;;25.40;99.90;;;;;;5095460;28;20220;-66
2023/06/25 08:08:34;;;;;;;1999.90;999.90;;;25.40;99.90;;;;;;5095587;28;20651;-67
2023/06/25 08:10:59;;;;;;;1999.90;999.90;;;25.50;99.90;;;;;;5095338;28;20197;-66
2023/06/25 08:13:25;;;;;;;1999.90;999.90;;;25.70;99.90;;;;;;5095482;28;20163;-66
2023/06/25 08:15:50;;;;;;;1999.90;999.90;;;25.70;99.90;;;;;;5095497;28;20568;-66
2023/06/25 08:18:16;;;;;;;1999.90;999.90;;;25.80;99.90;;;;;;5095412;28;20178;-68
2023/06/25 08:20:42;;;;;;;1999.90;999.90;;;25.90;99.90;;;;;;5095355;28;20194;-65
2023/06/25 08:23:08;;;;;;;1999.90;999.90;;;25.90;99.90;;;;;;5095026;28;20558;-67
2023/06/25 08:25:33;;;;;;;1999.90;999.90;;;25.90;99.90;;;;;;5095140;28;20436;-66
2023/06/25 08:27:59;;;;;;;1999.90;999.90;;;26.00;99.90;;;;;;5095389;28;20201;-66
2023/06/25 08:30:25;;;;;;;1999.90;999.90;;;26.10;99.90;;;;;;5095145;28;20173;-66
2023/06/25 08:32:50;;;;;;;1999.90;999.90;;;26.20;99.90;;;;;;5094900;28;20523;-67
2023/06/25 08:35:16;;;;;;;1999.90;999.90;;;26.30;99.90;;;;;;5094993;28;20695;-66
2023/06/25 08:37:42;;;;;;;1999.90;999.90;;;26.40;99.90;;;;;;5095053;28;20178;-66
2023/06/25 08:40:11;;;;;;;1999.90;999.90;;;26.50;99.90;;;;;;5094979;28;20170;-66
2023/06/25 08:42:37;;;;;;;1999.90;999.90;;;26.60;99.90;;;;;;5094780;28;20483;-66
2023/06/25 08:45:03;;;;;;;1999.90;999.90;;;26.70;99.90;;;;;;5094931;28;20998;-67
2023/06/25 08:47:33;;;;;;;1999.90;999.90;;;26.80;99.90;;;;;;5094868;28;20201;-66
2023/06/25 08:49:59;;;;;;;1999.90;999.90;;;26.90;99.90;;;;;;5094819;28;20178;-65
2023/06/25 08:52:24;;;;;;;1999.90;999.90;;;27.00;99.90;;;;;;5094653;28;20400;-66
2023/06/25 08:54:51;;;;;;;1999.90;999.90;;;27.10;99.90;;;;;;5094818;28;20197;-66
2023/06/25 08:57:17;;;;;;;1999.90;999.90;;;27.30;99.90;;;;;;5094867;28;20574;-65
2023/06/25 08:59:44;;;;;;;1999.90;999.90;;;27.40;99.90;;;;;;5094686;28;20404;-66
2023/06/25 09:02:09;;;;;;;1999.90;999.90;;;27.40;99.90;;;;;;5094409;28;20404;-67
2023/06/25 09:04:36;;;;;;;1999.90;999.90;;;27.50;99.90;;;;;;5094440;28;20951;-68
2023/06/25 09:07:11;;;;;;;1999.90;999.90;;;27.60;99.90;;;;;;5094338;28;20548;-66
2023/06/25 09:09:37;;;;;;;1999.90;999.90;;;27.70;99.90;;;;;;5094492;28;20504;-66
2023/06/25 09:12:03;;;;;;;1999.90;999.90;;;27.80;99.90;;;;;;5094198;28;20917;-68
2023/06/25 09:14:31;;;;;;;1999.90;999.90;;;28.00;99.90;;;;;;5094098;28;20174;-68
2023/06/25 09:16:57;;;;;;;1999.90;999.90;;;28.10;99.20;;;;;;5094119;28;20204;-68
2023/06/25 09:19:23;;;;;;;1999.90;999.90;;;28.10;96.50;;;;;;5094182;28;20493;-68
2023/06/25 09:21:49;;;;;;;1999.90;999.90;;;28.10;99.10;;;;;;5093745;28;20177;-68
2023/06/25 09:24:19;;;;;;;1999.90;999.90;;;28.20;97.60;;;;;;5094272;28;20178;-68
2023/06/25 09:26:49;;;;;;;1999.90;999.90;;;28.30;98.00;;;;;;5094262;28;20779;-68
2023/06/25 09:29:16;;;;;;;1999.90;999.90;;;28.30;95.40;;;;;;5094012;28;20451;-68
2023/06/25 09:31:43;;;;;;;1999.90;999.90;;;28.50;94.40;;;;;;5093660;28;20478;-67
2023/06/25 09:34:10;;;;;;;1999.90;999.90;;;28.60;94.70;;;;;;5093962;28;20408;-66
2023/06/25 09:36:36;;;;;;;1999.90;999.90;;;28.70;95.10;;;;;;5093784;28;20425;-68
2023/06/25 09:39:05;;;;;;;1999.90;999.90;;;28.90;91.40;;;;;;5093903;28;20489;-67
2023/06/25 09:41:34;;;;;;;1999.90;999.90;;;29.00;91.90;;;;;;5093459;28;20181;-68
2023/06/25 09:44:03;;;;;;;1999.90;999.90;;;29.10;83.00;;;;;;5093625;28;20469;-68
2023/06/25 09:46:35;;;;;;;1999.90;999.90;;;29.30;76.40;;;;;;5093561;28;20951;-68
2023/06/25 09:49:01;;;;;;;1999.90;999.90;;;29.30;79.30;;;;;;5093673;28;20452;-66
2023/06/25 09:51:50;;;;;;;1999.90;999.90;;;29.40;75.40;;;;;;5093299;28;20400;-67
2023/06/25 09:54:18;;;;;;;1999.90;999.90;;;29.50;65.30;;;;;;5093124;28;20961;-68
2023/06/25 09:56:45;;;;;;;1999.90;999.90;;;29.70;65.90;;;;;;5093398;28;20794;-68
2023/06/25 09:59:12;;;;;;;1999.90;999.90;;;29.70;62.60;;;;;;5093676;28;20422;-68
2023/06/25 10:01:38;;;;;;;1999.90;999.90;;;29.80;56.30;;;;;;5093130;28;20491;-67
2023/06/25 10:04:04;;;;;;;1999.90;999.90;;;29.80;58.30;;;;;;5093293;28;20943;-67
2023/06/25 10:06:30;;;;;;;1999.90;999.90;;;29.80;58.10;;;;;;5093103;28;20435;-68
2023/06/25 10:08:56;;;;;;;1999.90;999.90;;;29.90;52.10;;;;;;5093124;28;20440;-68
2023/06/25 10:11:21;;;;;;;1999.90;999.90;;;30.00;52.00;;;;;;5092810;28;20507;-67
2023/06/25 10:13:48;;;;;;;1999.90;999.90;;;30.10;57.00;;;;;;5093142;28;20173;-67
2023/06/25 10:16:20;;;;;;;1999.90;999.90;;;30.20;56.90;;;;;;5092906;28;20197;-69
2023/06/25 10:18:47;;;;;;;1999.90;999.90;;;30.30;56.80;;;;;;5092327;28;20913;-68
2023/06/25 10:21:21;;;;;;;1999.90;999.90;;;30.40;55.70;;;;;;5092750;28;20435;-68
2023/06/25 10:24:00;;;;;;;1999.90;999.90;;;30.60;52.20;;;;;;5090181;28;20473;-68
2023/06/25 10:26:33;;;;;;;1999.90;999.90;;;30.70;47.30;;;;;;5091457;28;20514;-68
2023/06/25 10:29:01;;;;;;;1999.90;999.90;;;30.70;47.20;;;;;;5091584;28;20452;-68
2023/06/25 10:31:37;;;;;;;1999.90;999.90;;;31.00;45.90;;;;;;5092226;28;20773;-68
2023/06/25 10:34:08;;;;;;;1999.90;999.90;;;31.10;42.80;;;;;;5089626;28;20400;-70
2023/06/25 10:36:34;;;;;;;1999.90;999.90;;;31.30;42.50;;;;;;5088860;28;20428;-67
2023/06/25 10:39:00;;;;;;;1999.90;999.90;;;31.40;32.60;;;;;;5088769;28;20495;-67
2023/06/25 10:41:30;;;;;;;1999.90;999.90;;;31.50;33.50;;;;;;5088422;28;20504;-67
2023/06/25 10:43:57;;;;;;;1999.90;999.90;;;31.50;30.80;;;;;;5088330;28;20419;-69
2023/06/25 10:46:32;;;;;;;1999.90;999.90;;;31.50;35.80;;;;;;5088654;28;20812;-69
2023/06/25 10:49:01;;;;;;;1999.90;999.90;;;31.60;35.10;;;;;;5088976;28;20447;-67
2023/06/25 10:51:32;;;;;;;1999.90;999.90;;;31.60;34.80;;;;;;5088189;28;20992;-68
2023/06/25 10:53:58;;;;;;;1999.90;999.90;;;31.80;34.20;;;;;;5088187;28;20444;-70
2023/06/25 10:56:24;;;;;;;1999.90;999.90;;;31.90;28.70;;;;;;5088352;28;20474;-69
2023/06/25 10:58:58;;;;;;;1999.90;999.90;;;31.80;32.20;;;;;;5088222;28;20177;-72
2023/06/25 11:01:25;;;;;;;1999.90;999.90;;;31.70;33.70;;;;;;5087753;28;20185;-69
2023/06/25 11:03:51;;;;;;;1999.90;999.90;;;31.70;30.70;;;;;;5088617;28;20412;-68
2023/06/25 11:06:16;;;;;;;1999.90;999.90;;;31.90;30.00;;;;;;5087865;28;20563;-68
2023/06/25 11:08:42;;;;;;;1999.90;999.90;;;32.00;34.20;;;;;;5088038;28;20708;-68
2023/06/25 11:11:08;;;;;;;1999.90;999.90;;;32.20;32.80;;;;;;5088482;28;20178;-69
2023/06/25 11:13:34;;;;;;;1999.90;999.90;;;32.30;31.50;;;;;;5087995;28;20412;-69
2023/06/25 11:15:59;;;;;;;1999.90;999.90;;;32.30;29.30;;;;;;5084839;28;20190;-66
2023/06/25 11:18:25;;;;;;;1999.90;999.90;;;32.30;25.50;;;;;;5088466;28;20178;-68
2023/06/25 11:20:53;;;;;;;1999.90;999.90;;;32.50;25.30;;;;;;5087737;28;20243;-68
2023/06/25 11:23:18;;;;;;;1999.90;999.90;;;32.70;24.10;;;;;;5087232;28;20254;-67
2023/06/25 11:25:44;;;;;;;1999.90;999.90;;;32.80;25.30;;;;;;5087832;28;20436;-68
2023/06/25 11:28:12;;;;;;;1999.90;999.90;;;32.80;24.80;;;;;;5087549;28;20321;-68
2023/06/25 11:30:39;;;;;;;1999.90;999.90;;;32.70;24.20;;;;;;5091903;28;20182;-67
2023/06/25 11:33:15;;;;;;;1999.90;999.90;;;32.50;19.70;;;;;;5094549;28;20412;-69
2023/06/25 11:35:42;;;;;;;1999.90;999.90;;;32.60;20.70;;;;;;5094423;28;20427;-69
2023/06/25 11:38:08;;;;;;;1999.90;999.90;;;32.70;19.80;;;;;;5093551;28;20412;-68
2023/06/25 11:40:36;;;;;;;1999.90;999.90;;;32.50;22.20;;;;;;5095091;28;20928;-67
2023/06/25 11:43:02;;;;;;;1999.90;999.90;;;32.50;23.80;;;;;;5094459;28;20182;-68
2023/06/25 11:45:40;;;;;;;1999.90;999.90;;;32.80;25.10;;;;;;5093911;28;20560;-68
2023/06/25 11:48:12;;;;;;;1999.90;999.90;;;32.80;18.80;;;;;;5093623;28;20212;-68
2023/06/25 11:50:38;;;;;;;1999.90;999.90;;;33.10;23.20;;;;;;5094353;28;20427;-68
2023/06/25 11:53:03;;;;;;;1999.90;999.90;;;33.40;22.10;;;;;;5093986;28;21108;-68
2023/06/25 11:55:29;;;;;;;1999.90;999.90;;;33.50;23.00;;;;;;5093707;28;20837;-68